Time;durP1;ratioP1;P1;durP2;ratioP2;P2;SDS_P1;SDS_P2;PMS_P1;PMS_P2;Temp;Humidity;BMP_temperature;BMP_pressure;BME280_temperature;BME280_humidity;BME280_pressure;Samples;Min_cycle;Max_cycle;Signal;HPM_P1;HPM_P2
2023/03/07 00:01:26;;;;;;;26.07;24.47;;;;;;;-141.22;100.00;65034.22;4999497;28;20534;-44
2023/03/07 00:03:54;;;;;;;24.30;22.60;;;;;;;-141.22;100.00;65034.22;5000129;28;20468;-45
2023/03/07 00:06:23;;;;;;;23.90;22.30;;;;;;;-141.22;100.00;65034.22;5000400;28;20671;-45
2023/03/07 00:08:53;;;;;;;25.27;23.40;;;;;;;-141.22;100.00;65034.22;5000454;28;20525;-46
2023/03/07 00:11:21;;;;;;;23.90;22.40;;;;;;;-141.22;100.00;65034.22;4999626;28;20484;-44
2023/03/07 00:13:49;;;;;;;22.13;20.83;;;;;;;-141.22;100.00;65034.22;5000196;28;20442;-45
2023/03/07 00:16:19;;;;;;;24.97;23.23;;;;;;;-141.22;100.00;65034.22;5000679;28;20438;-47
2023/03/07 00:18:47;;;;;;;23.30;21.70;;;;;;;-141.22;100.00;65034.22;4999998;28;20932;-50
2023/03/07 00:21:17;;;;;;;24.67;22.87;;;;;;;-141.22;100.00;65034.22;4999683;28;20469;-48
2023/03/07 00:23:46;;;;;;;25.07;23.27;;;;;;;-141.22;100.00;65034.22;5000369;28;20450;-47
2023/03/07 00:26:17;;;;;;;25.20;23.50;;;;;;;-141.22;100.00;65034.22;5000163;28;20448;-49
2023/03/07 00:28:47;;;;;;;24.70;23.20;;;;;;;-141.22;100.00;65034.22;5000438;28;20913;-45
2023/03/07 00:31:15;;;;;;;24.20;22.50;;;;;;;-141.22;100.00;65034.22;4999731;28;20450;-47
2023/03/07 00:33:43;;;;;;;25.70;23.87;;;;;;;-141.22;100.00;65034.22;4999837;28;20449;-44
2023/03/07 00:36:13;;;;;;;25.40;23.50;;;;;;;-141.22;100.00;65034.22;4999595;28;20434;-47
2023/03/07 00:38:41;;;;;;;27.47;25.67;;;;;;;-141.22;100.00;65034.22;4999798;28;20441;-47
2023/03/07 00:41:11;;;;;;;26.00;24.10;;;;;;;-141.22;100.00;65034.22;4999027;28;20469;-44
2023/03/07 00:43:40;;;;;;;26.90;25.20;;;;;;;-141.22;100.00;65034.22;4999714;28;20454;-46
2023/03/07 00:46:09;;;;;;;28.83;26.57;;;;;;;-141.22;100.00;65034.22;4999707;28;20501;-47
2023/03/07 00:48:38;;;;;;;28.33;26.13;;;;;;;-141.22;100.00;65034.22;4999407;28;20540;-48
2023/03/07 00:51:08;;;;;;;28.87;27.00;;;;;;;-141.22;100.00;65034.22;4998754;28;20461;-45
2023/03/07 00:53:36;;;;;;;29.03;26.93;;;;;;;-141.22;100.00;65034.22;4999279;28;20496;-47
2023/03/07 00:56:07;;;;;;;29.87;27.77;;;;;;;-141.22;100.00;65034.22;4999639;28;20433;-44
2023/03/07 00:58:36;;;;;;;30.93;28.83;;;;;;;-141.22;100.00;65034.22;4999500;28;20429;-49
2023/03/07 01:01:06;;;;;;;30.07;27.97;;;;;;;-141.22;100.00;65034.22;4998891;28;20537;-46
2023/03/07 01:03:34;;;;;;;31.60;29.40;;;;;;;-141.22;100.00;65034.22;4998930;28;20505;-45
2023/03/07 01:06:03;;;;;;;32.40;30.10;;;;;;;-141.22;100.00;65034.22;4998230;28;20434;-46
2023/03/07 01:08:31;;;;;;;31.90;29.70;;;;;;;-141.22;100.00;65034.22;4999154;28;20480;-45
2023/03/07 01:10:59;;;;;;;33.50;30.73;;;;;;;-141.22;100.00;65034.22;4998267;28;20493;-47
2023/03/07 01:13:28;;;;;;;32.53;29.87;;;;;;;-141.22;100.00;65034.22;4998976;28;20464;-44
2023/03/07 01:15:55;;;;;;;35.13;32.20;;;;;;;-141.22;100.00;65034.22;4999366;28;20429;-47
2023/03/07 01:18:24;;;;;;;34.07;31.67;;;;;;;-141.22;100.00;65034.22;4999268;28;20465;-47
2023/03/07 01:20:52;;;;;;;35.57;33.07;;;;;;;-141.22;100.00;65034.22;4998451;28;20466;-45
2023/03/07 01:23:20;;;;;;;35.93;33.43;;;;;;;-141.22;100.00;65034.22;4999195;28;21083;-44
2023/03/07 01:25:48;;;;;;;35.97;33.10;;;;;;;-141.22;100.00;65034.22;4999593;28;20438;-45
2023/03/07 01:28:16;;;;;;;35.40;33.10;;;;;;;-141.22;100.00;65034.22;4997092;28;20473;-45
2023/03/07 01:30:44;;;;;;;37.10;34.20;;;;;;;-141.22;100.00;65034.22;4991752;28;20458;-45
2023/03/07 01:33:11;;;;;;;39.23;36.03;;;;;;;-141.22;100.00;65034.22;4992055;28;20450;-46
2023/03/07 01:35:41;;;;;;;40.07;36.80;;;;;;;-141.22;100.00;65034.22;4992083;28;20929;-44
2023/03/07 01:38:09;;;;;;;39.87;36.70;;;;;;;-141.22;100.00;65034.22;4992288;28;20505;-47
2023/03/07 01:40:38;;;;;;;40.93;37.83;;;;;;;-141.22;100.00;65034.22;4991894;28;20970;-51
2023/03/07 01:43:23;;;;;;;40.50;37.53;;;;;;;-141.22;100.00;65034.22;4991576;28;20857;-45
2023/03/07 01:46:33;;;;;;;43.33;39.60;;;;;;;-141.22;100.00;65034.22;4992401;28;20450;-46
2023/03/07 01:49:06;;;;;;;40.70;37.50;;;;;;;-141.22;100.00;65034.22;4992103;28;20484;-45
2023/03/07 01:51:38;;;;;;;44.07;40.57;;;;;;;-141.22;100.00;65034.22;4991734;28;20469;-46
2023/03/07 01:54:08;;;;;;;43.47;39.97;;;;;;;-141.22;100.00;65034.22;4991712;28;20444;-45
2023/03/07 01:56:38;;;;;;;46.40;42.70;;;;;;;-141.22;100.00;65034.22;4992253;28;20958;-44
2023/03/07 01:59:06;;;;;;;42.20;39.13;;;;;;;-141.22;100.00;65034.22;4992016;28;20433;-47
2023/03/07 02:01:35;;;;;;;47.13;43.13;;;;;;;-141.22;100.00;65034.22;4991398;28;20462;-50
2023/03/07 02:04:09;;;;;;;47.00;43.00;;;;;;;-141.22;100.00;65034.22;4991733;28;20465;-45
2023/03/07 02:06:39;;;;;;;48.33;44.23;;;;;;;-141.22;100.00;65034.22;4991577;28;20958;-44
2023/03/07 02:09:12;;;;;;;46.50;42.80;;;;;;;-141.22;100.00;65034.22;4991975;28;20497;-47
2023/03/07 02:11:41;;;;;;;48.27;44.27;;;;;;;-141.22;100.00;65034.22;4991216;28;20469;-43
2023/03/07 02:14:09;;;;;;;47.57;43.43;;;;;;;-141.22;100.00;65034.22;4991693;28;20537;-46
2023/03/07 02:16:39;;;;;;;45.00;41.37;;;;;;;-141.22;100.00;65034.22;4992059;28;20442;-47
2023/03/07 02:19:21;;;;;;;49.30;45.10;;;;;;;-141.22;100.00;65034.22;4991101;28;20442;-46
2023/03/07 02:22:00;;;;;;;44.47;40.97;;;;;;;-141.22;100.00;65034.22;4991353;28;20469;-48
2023/03/07 02:24:34;;;;;;;48.50;44.80;;;;;;;-141.22;100.00;65034.22;4991827;28;20485;-47
2023/03/07 02:27:04;;;;;;;47.53;44.07;;;;;;;-141.22;100.00;65034.22;4991643;28;20462;-46
2023/03/07 02:29:32;;;;;;;47.00;43.40;;;;;;;-141.22;100.00;65034.22;4991442;28;20489;-48
2023/03/07 02:32:00;;;;;;;46.63;43.33;;;;;;;-141.22;100.00;65034.22;4990412;28;20458;-43
2023/03/07 02:34:30;;;;;;;45.83;42.50;;;;;;;-141.22;100.00;65034.22;4991699;28;20481;-49
2023/03/07 02:37:01;;;;;;;44.63;41.00;;;;;;;-141.22;100.00;65034.22;4991388;28;20441;-45
2023/03/07 02:39:29;;;;;;;46.60;43.10;;;;;;;-141.22;100.00;65034.22;4991478;28;20461;-46
2023/03/07 02:41:59;;;;;;;44.20;41.03;;;;;;;-141.22;100.00;65034.22;4990737;28;20465;-47
2023/03/07 02:44:28;;;;;;;43.83;40.70;;;;;;;-141.22;100.00;65034.22;4991611;28;20991;-46
2023/03/07 02:46:56;;;;;;;46.73;43.03;;;;;;;-141.22;100.00;65034.22;4991539;28;20441;-49
2023/03/07 02:49:24;;;;;;;44.67;41.13;;;;;;;-141.22;100.00;65034.22;4991558;28;20477;-45
2023/03/07 02:51:56;;;;;;;45.50;42.37;;;;;;;-141.22;100.00;65034.22;4991034;28;20465;-45
2023/03/07 02:54:25;;;;;;;44.13;41.20;;;;;;;-141.22;100.00;65034.22;4991460;28;20503;-45
2023/03/07 02:56:53;;;;;;;42.03;39.17;;;;;;;-141.22;100.00;65034.22;4991490;28;20767;-47
2023/03/07 02:59:21;;;;;;;40.40;38.10;;;;;;;-141.22;100.00;65034.22;4991056;28;20450;-47
2023/03/07 03:01:50;;;;;;;40.00;37.70;;;;;;;-141.22;100.00;65034.22;4991094;28;20454;-47
2023/03/07 03:04:18;;;;;;;40.00;37.33;;;;;;;-141.22;100.00;65034.22;4991055;28;20472;-44
2023/03/07 03:06:45;;;;;;;40.70;37.80;;;;;;;-141.22;100.00;65034.22;4991190;28;20445;-47
2023/03/07 03:09:13;;;;;;;41.50;38.80;;;;;;;-141.22;100.00;65034.22;4991581;28;20844;-48
2023/03/07 03:11:41;;;;;;;39.33;36.93;;;;;;;-141.22;100.00;65034.22;4990940;28;20477;-48
2023/03/07 03:14:09;;;;;;;41.57;38.37;;;;;;;-141.22;100.00;65034.22;4991308;28;20457;-45
2023/03/07 03:16:38;;;;;;;40.57;37.97;;;;;;;-141.22;100.00;65034.22;4991436;28;20817;-45
2023/03/07 03:19:07;;;;;;;40.00;37.47;;;;;;;-141.22;100.00;65034.22;4991114;28;20434;-44
2023/03/07 03:21:35;;;;;;;42.30;39.27;;;;;;;-141.22;100.00;65034.22;4990607;28;20469;-46
2023/03/07 03:24:05;;;;;;;40.33;37.73;;;;;;;-141.22;100.00;65034.22;4991083;28;20454;-50
2023/03/07 03:26:33;;;;;;;42.00;39.23;;;;;;;-141.22;100.00;65034.22;4991361;28;20442;-48
2023/03/07 03:29:02;;;;;;;42.17;38.87;;;;;;;-141.22;100.00;65034.22;4991032;28;20473;-45
2023/03/07 03:31:30;;;;;;;42.87;40.00;;;;;;;-141.22;100.00;65034.22;4991696;28;20474;-43
2023/03/07 03:33:58;;;;;;;43.37;40.50;;;;;;;-141.22;100.00;65034.22;4994191;28;20453;-45
2023/03/07 03:36:28;;;;;;;42.70;40.10;;;;;;;-141.22;100.00;65034.22;4994409;28;20422;-45
2023/03/07 03:38:57;;;;;;;45.70;42.37;;;;;;;-141.22;100.00;65034.22;4994642;28;21047;-48
2023/03/07 03:41:25;;;;;;;45.60;42.67;;;;;;;-141.22;100.00;65034.22;4994095;28;20832;-46
2023/03/07 03:43:53;;;;;;;45.60;41.97;;;;;;;-141.22;100.00;65034.22;4994082;28;20488;-45
2023/03/07 03:46:21;;;;;;;43.60;41.10;;;;;;;-141.22;100.00;65034.22;4994472;28;20434;-46
2023/03/07 03:48:52;;;;;;;43.27;39.50;;;;;;;-141.22;100.00;65034.22;4994163;28;20556;-44
2023/03/07 03:51:21;;;;;;;43.70;40.80;;;;;;;-141.22;100.00;65034.22;4994108;28;20465;-46
2023/03/07 03:53:50;;;;;;;44.77;41.87;;;;;;;-141.22;100.00;65034.22;4994034;28;20469;-44
2023/03/07 03:56:20;;;;;;;44.50;41.30;;;;;;;-141.22;100.00;65034.22;4994262;28;20442;-45
2023/03/07 03:58:50;;;;;;;43.33;40.10;;;;;;;-141.22;100.00;65034.22;4993837;28;20434;-43
2023/03/07 04:01:19;;;;;;;42.53;39.50;;;;;;;-141.22;100.00;65034.22;4993693;28;20489;-45
2023/03/07 04:03:49;;;;;;;40.37;37.93;;;;;;;-141.22;100.00;65034.22;4993763;28;20545;-47
2023/03/07 04:06:18;;;;;;;41.23;38.47;;;;;;;-141.22;100.00;65034.22;4994054;28;20437;-49
2023/03/07 04:08:47;;;;;;;42.23;39.50;;;;;;;-141.22;100.00;65034.22;4993891;28;20844;-45
2023/03/07 04:11:16;;;;;;;40.93;38.70;;;;;;;-141.22;100.00;65034.22;4992704;28;20461;-46
2023/03/07 04:13:44;;;;;;;45.17;41.93;;;;;;;-141.22;100.00;65034.22;4993136;28;20461;-45
2023/03/07 04:16:12;;;;;;;44.83;41.80;;;;;;;-141.22;100.00;65034.22;4993884;28;20434;-46
2023/03/07 04:18:40;;;;;;;45.53;41.73;;;;;;;-141.22;100.00;65034.22;4993615;28;20488;-46
2023/03/07 04:21:08;;;;;;;42.03;38.93;;;;;;;-141.22;100.00;65034.22;4993225;28;20473;-49
2023/03/07 04:23:37;;;;;;;41.07;38.47;;;;;;;-141.22;100.00;65034.22;4993305;28;21021;-44
2023/03/07 04:26:06;;;;;;;42.90;39.93;;;;;;;-141.22;100.00;65034.22;4993905;28;20803;-46
2023/03/07 04:28:43;;;;;;;40.47;38.27;;;;;;;-141.22;100.00;65034.22;4993461;28;20434;-46
2023/03/07 04:31:12;;;;;;;40.07;37.67;;;;;;;-141.22;100.00;65034.22;4993328;28;20474;-45
2023/03/07 04:33:41;;;;;;;40.70;37.80;;;;;;;-141.22;100.00;65034.22;4993291;28;20827;-44
2023/03/07 04:36:10;;;;;;;42.40;39.77;;;;;;;-141.22;100.00;65034.22;4993367;28;20444;-48
2023/03/07 04:38:39;;;;;;;42.20;38.50;;;;;;;-141.22;100.00;65034.22;4993472;28;20845;-44
2023/03/07 04:41:07;;;;;;;39.80;37.10;;;;;;;-141.22;100.00;65034.22;4993185;28;20458;-44
2023/03/07 04:43:36;;;;;;;38.73;35.83;;;;;;;-141.22;100.00;65034.22;4992791;28;20454;-44
2023/03/07 04:46:04;;;;;;;39.13;35.47;;;;;;;-141.22;100.00;65034.22;4993388;28;20437;-44
2023/03/07 04:48:32;;;;;;;39.57;37.03;;;;;;;-141.22;100.00;65034.22;4993294;28;20441;-48
2023/03/07 04:51:00;;;;;;;40.10;36.97;;;;;;;-141.22;100.00;65034.22;4992560;28;21119;-50
2023/03/07 04:53:27;;;;;;;37.23;35.23;;;;;;;-141.22;100.00;65034.22;4993229;28;20464;-49
2023/03/07 04:55:58;;;;;;;37.17;34.40;;;;;;;-141.22;100.00;65034.22;4993039;28;20533;-46
2023/03/07 04:58:26;;;;;;;37.13;34.97;;;;;;;-141.22;100.00;65034.22;4993340;28;20501;-47
2023/03/07 05:00:56;;;;;;;36.50;34.37;;;;;;;-141.22;100.00;65034.22;4992702;28;20469;-45
2023/03/07 05:03:25;;;;;;;37.70;34.97;;;;;;;-141.22;100.00;65034.22;4992381;28;21150;-47
2023/03/07 05:05:53;;;;;;;39.30;36.60;;;;;;;-141.22;100.00;65034.22;4993160;28;20427;-47
2023/03/07 05:08:22;;;;;;;39.33;36.30;;;;;;;-141.22;100.00;65034.22;4993025;28;20803;-46
2023/03/07 05:10:49;;;;;;;36.93;34.00;;;;;;;-141.22;100.00;65034.22;4992540;28;20504;-45
2023/03/07 05:13:17;;;;;;;37.53;35.10;;;;;;;-141.22;100.00;65034.22;4992534;28;21058;-45
2023/03/07 05:15:50;;;;;;;37.63;34.40;;;;;;;-141.22;100.00;65034.22;4992880;28;20804;-44
2023/03/07 05:18:19;;;;;;;37.13;34.60;;;;;;;-141.22;100.00;65034.22;4993055;28;20440;-47
2023/03/07 05:20:48;;;;;;;37.47;35.07;;;;;;;-141.22;100.00;65034.22;4992303;28;20501;-44
2023/03/07 05:23:16;;;;;;;39.30;37.10;;;;;;;-141.22;100.00;65034.22;4992248;28;20450;-44
2023/03/07 05:25:45;;;;;;;41.90;38.83;;;;;;;-141.22;100.00;65034.22;4992756;28;20520;-43
2023/03/07 05:28:13;;;;;;;40.93;38.00;;;;;;;-141.22;100.00;65034.22;4992418;28;20468;-44
2023/03/07 05:30:41;;;;;;;37.87;35.53;;;;;;;-141.22;100.00;65034.22;4992156;28;20839;-44
2023/03/07 05:33:09;;;;;;;38.13;35.53;;;;;;;-141.22;100.00;65034.22;4992342;28;20545;-44
2023/03/07 05:35:38;;;;;;;38.07;34.87;;;;;;;-141.22;100.00;65034.22;4992429;28;20549;-44
2023/03/07 05:38:06;;;;;;;36.93;34.40;;;;;;;-141.22;100.00;65034.22;4992483;28;21008;-43
2023/03/07 05:40:34;;;;;;;38.23;35.93;;;;;;;-141.22;100.00;65034.22;4991995;28;20465;-47
2023/03/07 05:43:02;;;;;;;37.27;34.63;;;;;;;-141.22;100.00;65034.22;4992009;28;20461;-44
2023/03/07 05:45:30;;;;;;;41.40;37.70;;;;;;;-141.22;100.00;65034.22;4992348;28;20430;-44
2023/03/07 05:47:58;;;;;;;40.27;37.20;;;;;;;-141.22;100.00;65034.22;4992233;28;20440;-43
2023/03/07 05:50:26;;;;;;;37.30;34.80;;;;;;;-141.22;100.00;65034.22;4991746;28;20469;-44
2023/03/07 05:52:55;;;;;;;37.37;35.00;;;;;;;-141.22;100.00;65034.22;4992267;28;20516;-45
2023/03/07 05:55:22;;;;;;;37.77;35.13;;;;;;;-141.22;100.00;65034.22;4991450;28;20446;-45
2023/03/07 05:57:50;;;;;;;39.50;37.00;;;;;;;-141.22;100.00;65034.22;4992055;28;20450;-43
2023/03/07 06:00:19;;;;;;;40.23;36.30;;;;;;;-141.22;100.00;65034.22;4991287;28;20473;-46
2023/03/07 06:02:47;;;;;;;37.10;35.17;;;;;;;-141.22;100.00;65034.22;4991771;28;20441;-46
2023/03/07 06:05:14;;;;;;;37.67;35.37;;;;;;;-141.22;100.00;65034.22;4992067;28;20461;-44
2023/03/07 06:07:42;;;;;;;37.57;35.13;;;;;;;-141.22;100.00;65034.22;4992086;28;20433;-46
2023/03/07 06:10:13;;;;;;;37.50;34.50;;;;;;;-141.22;100.00;65034.22;4990902;28;20500;-44
2023/03/07 06:12:40;;;;;;;37.80;35.20;;;;;;;-141.22;100.00;65034.22;4991978;28;20832;-48
2023/03/07 06:15:09;;;;;;;37.90;35.37;;;;;;;-141.22;100.00;65034.22;4991583;28;21196;-44
2023/03/07 06:17:36;;;;;;;36.17;33.97;;;;;;;-141.22;100.00;65034.22;4991754;28;20438;-44
2023/03/07 06:20:08;;;;;;;33.60;32.10;;;;;;;-141.22;100.00;65034.22;4991476;28;20517;-46
2023/03/07 06:22:37;;;;;;;37.87;34.70;;;;;;;-141.22;100.00;65034.22;4991338;28;20438;-47
2023/03/07 06:25:06;;;;;;;37.57;34.53;;;;;;;-141.22;100.00;65034.22;4991703;28;20529;-45
2023/03/07 06:27:36;;;;;;;35.27;33.00;;;;;;;-141.22;100.00;65034.22;4991583;28;20950;-44
2023/03/07 06:30:07;;;;;;;34.73;32.70;;;;;;;-141.22;100.00;65034.22;4991243;28;20481;-46
2023/03/07 06:32:35;;;;;;;35.60;33.30;;;;;;;-141.22;100.00;65034.22;4991016;28;20426;-46
2023/03/07 06:35:03;;;;;;;37.93;35.73;;;;;;;-141.22;100.00;65034.22;4991771;28;20430;-44
2023/03/07 06:37:30;;;;;;;38.30;35.73;;;;;;;-141.22;100.00;65034.22;4991688;28;20785;-44
2023/03/07 06:39:58;;;;;;;35.97;33.97;;;;;;;-141.22;100.00;65034.22;4991141;28;20430;-47
2023/03/07 06:42:26;;;;;;;35.83;33.87;;;;;;;-141.22;100.00;65034.22;4990949;28;20426;-44
2023/03/07 06:44:55;;;;;;;37.20;34.50;;;;;;;-141.22;100.00;65034.22;4991499;28;20446;-44
2023/03/07 06:47:22;;;;;;;37.70;34.90;;;;;;;-141.22;100.00;65034.22;4991104;28;20442;-44
2023/03/07 06:49:51;;;;;;;37.70;35.03;;;;;;;-141.22;100.00;65034.22;4991121;28;20517;-44
2023/03/07 06:52:19;;;;;;;36.77;34.40;;;;;;;-141.22;100.00;65034.22;4990928;28;20474;-44
2023/03/07 06:54:46;;;;;;;35.07;32.33;;;;;;;-141.22;100.00;65034.22;4991678;28;20453;-43
2023/03/07 06:57:14;;;;;;;33.80;31.70;;;;;;;-141.22;100.00;65034.22;4991277;28;20954;-44
2023/03/07 06:59:42;;;;;;;35.73;32.50;;;;;;;-141.22;100.00;65034.22;4991047;28;20437;-44
2023/03/07 07:02:14;;;;;;;32.87;30.63;;;;;;;-141.22;100.00;65034.22;4990292;28;20465;-45
2023/03/07 07:04:41;;;;;;;31.60;29.63;;;;;;;-141.22;100.00;65034.22;4991093;28;20625;-46
2023/03/07 07:07:09;;;;;;;30.93;28.70;;;;;;;-141.22;100.00;65034.22;4994774;28;20445;-44
2023/03/07 07:09:37;;;;;;;32.13;30.20;;;;;;;-141.22;100.00;65034.22;4995025;28;20444;-49
2023/03/07 07:12:05;;;;;;;32.60;29.30;;;;;;;-141.22;100.00;65034.22;4994326;28;20461;-45
2023/03/07 07:14:33;;;;;;;30.63;28.63;;;;;;;-141.22;100.00;65034.22;4994858;28;20997;-45
2023/03/07 07:17:01;;;;;;;30.17;28.37;;;;;;;-141.22;100.00;65034.22;4994942;28;20438;-44
2023/03/07 07:19:30;;;;;;;30.90;28.60;;;;;;;-141.22;100.00;65034.22;4995164;28;20816;-44
2023/03/07 07:21:58;;;;;;;32.27;29.20;;;;;;;-141.22;100.00;65034.22;4994106;28;20512;-44
2023/03/07 07:24:26;;;;;;;28.87;26.83;;;;;;;-141.22;100.00;65034.22;4994959;28;20445;-45
2023/03/07 07:26:54;;;;;;;30.20;27.60;;;;;;;-141.22;100.00;65034.22;4994768;28;20485;-46
2023/03/07 07:29:23;;;;;;;30.33;27.77;;;;;;;-141.22;100.00;65034.22;4994609;28;20434;-44
2023/03/07 07:31:50;;;;;;;31.43;28.80;;;;;;;-141.22;100.00;65034.22;4994175;28;20562;-46
2023/03/07 07:34:18;;;;;;;28.13;26.10;;;;;;;-141.22;100.00;65034.22;4994269;28;21148;-44
2023/03/07 07:36:47;;;;;;;28.03;26.07;;;;;;;-141.22;100.00;65034.22;4994658;28;20464;-44
2023/03/07 07:39:16;;;;;;;28.50;26.80;;;;;;;-141.22;100.00;65034.22;4994334;28;20429;-50
2023/03/07 07:41:44;;;;;;;28.77;27.10;;;;;;;-141.22;100.00;65034.22;4994232;28;20458;-49
2023/03/07 07:44:12;;;;;;;30.67;28.33;;;;;;;-141.22;100.00;65034.22;4993922;28;21003;-49
2023/03/07 07:46:41;;;;;;;29.57;27.73;;;;;;;-141.22;100.00;65034.22;4994534;28;20947;-48
2023/03/07 07:49:08;;;;;;;28.27;26.67;;;;;;;-141.22;100.00;65034.22;4994539;28;20460;-46
2023/03/07 07:51:36;;;;;;;29.77;28.07;;;;;;;-141.22;100.00;65034.22;4993558;28;20846;-52
2023/03/07 07:54:05;;;;;;;29.50;27.60;;;;;;;-141.22;100.00;65034.22;4994140;28;20971;-48
2023/03/07 07:56:33;;;;;;;28.40;26.90;;;;;;;-141.22;100.00;65034.22;4994292;28;20441;-45
2023/03/07 07:59:00;;;;;;;27.07;25.70;;;;;;;-141.22;100.00;65034.22;4994671;28;20433;-50
2023/03/07 08:01:28;;;;;;;28.80;27.10;;;;;;;-141.22;100.00;65034.22;4993554;28;20468;-47
2023/03/07 08:03:56;;;;;;;26.77;24.87;;;;;;;-141.22;100.00;65034.22;4993851;28;20469;-46
2023/03/07 08:06:26;;;;;;;27.73;25.43;;;;;;;-141.22;100.00;65034.22;4994377;28;20449;-46
2023/03/07 08:08:54;;;;;;;26.93;25.00;;;;;;;-141.22;100.00;65034.22;4993942;28;20430;-46
2023/03/07 08:11:23;;;;;;;26.23;24.87;;;;;;;-141.22;100.00;65034.22;4993745;28;20481;-46
2023/03/07 08:13:51;;;;;;;26.73;24.30;;;;;;;-141.22;100.00;65034.22;4993919;28;20453;-44
2023/03/07 08:16:21;;;;;;;26.03;23.83;;;;;;;-141.22;100.00;65034.22;4993963;28;20442;-48
2023/03/07 08:18:50;;;;;;;26.93;24.50;;;;;;;-141.22;100.00;65034.22;4993361;28;20465;-45
2023/03/07 08:21:18;;;;;;;23.97;22.87;;;;;;;-141.22;100.00;65034.22;4993383;28;20462;-46
2023/03/07 08:23:46;;;;;;;23.40;21.93;;;;;;;-141.22;100.00;65034.22;4993538;28;21038;-46
2023/03/07 08:26:13;;;;;;;23.80;22.13;;;;;;;-141.22;100.00;65034.22;4994051;28;20444;-48
2023/03/07 08:28:42;;;;;;;21.53;20.03;;;;;;;-141.22;100.00;65034.22;4993954;28;20492;-45
2023/03/07 08:31:12;;;;;;;31.50;29.10;;;;;;;-141.22;100.00;65034.22;4993315;28;20478;-43
2023/03/07 08:33:40;;;;;;;29.33;27.43;;;;;;;-141.22;100.00;65034.22;4993241;28;20490;-46
2023/03/07 08:36:09;;;;;;;29.63;28.03;;;;;;;-141.22;100.00;65034.22;4993010;28;20437;-45
2023/03/07 08:38:37;;;;;;;30.60;28.43;;;;;;;-141.22;100.00;65034.22;4993296;28;20422;-45
2023/03/07 08:41:06;;;;;;;30.87;29.27;;;;;;;-141.22;100.00;65034.22;4993033;28;20462;-44
2023/03/07 08:43:36;;;;;;;28.03;26.63;;;;;;;-141.22;100.00;65034.22;4993264;28;20549;-47
2023/03/07 08:46:06;;;;;;;28.83;27.00;;;;;;;-141.22;100.00;65034.22;4993442;28;20529;-45
2023/03/07 08:48:33;;;;;;;28.50;26.90;;;;;;;-141.22;100.00;65034.22;4993304;28;20461;-45
2023/03/07 08:51:04;;;;;;;28.33;26.50;;;;;;;-141.22;100.00;65034.22;4993039;28;20465;-47
2023/03/07 08:53:32;;;;;;;26.03;24.53;;;;;;;-141.22;100.00;65034.22;4993181;28;20545;-47
2023/03/07 08:56:00;;;;;;;27.27;25.40;;;;;;;-141.22;100.00;65034.22;4993340;28;20434;-45
2023/03/07 08:58:28;;;;;;;27.00;25.57;;;;;;;-141.22;100.00;65034.22;4992901;28;20444;-49
2023/03/07 09:00:57;;;;;;;25.17;23.70;;;;;;;-141.22;100.00;65034.22;4992234;28;20462;-46
2023/03/07 09:03:26;;;;;;;24.33;22.90;;;;;;;-141.22;100.00;65034.22;4989942;28;21106;-45
2023/03/07 09:05:54;;;;;;;24.43;23.23;;;;;;;-141.22;100.00;65034.22;4990378;28;20456;-45
2023/03/07 09:08:22;;;;;;;23.50;21.73;;;;;;;-141.22;100.00;65034.22;4993084;28;20932;-47
2023/03/07 09:10:50;;;;;;;23.60;22.33;;;;;;;-141.22;100.00;65034.22;4992697;28;20465;-44
2023/03/07 09:13:18;;;;;;;24.17;22.63;;;;;;;-141.22;100.00;65034.22;4992409;28;20477;-46
2023/03/07 09:15:45;;;;;;;23.27;21.87;;;;;;;-141.22;100.00;65034.22;4992843;28;20446;-47
2023/03/07 09:18:13;;;;;;;21.47;20.53;;;;;;;-141.22;100.00;65034.22;4992761;28;20438;-45
2023/03/07 09:20:43;;;;;;;22.10;20.33;;;;;;;-141.22;100.00;65034.22;4992407;28;20466;-45
2023/03/07 09:23:11;;;;;;;20.23;19.13;;;;;;;-141.22;100.00;65034.22;4992358;28;20454;-47
2023/03/07 09:25:39;;;;;;;19.40;18.30;;;;;;;-141.22;100.00;65034.22;4992757;28;20948;-49
2023/03/07 09:28:06;;;;;;;17.60;16.80;;;;;;;-141.22;100.00;65034.22;4992553;28;20484;-46
2023/03/07 09:30:34;;;;;;;18.23;17.63;;;;;;;-141.22;100.00;65034.22;4992218;28;20622;-50
2023/03/07 09:33:03;;;;;;;18.30;17.63;;;;;;;-141.22;100.00;65034.22;4992051;28;20478;-46
2023/03/07 09:35:30;;;;;;;18.10;17.40;;;;;;;-141.22;100.00;65034.22;4992502;28;20434;-49
2023/03/07 09:38:00;;;;;;;17.67;16.77;;;;;;;-141.22;100.00;65034.22;4990967;28;20438;-50
2023/03/07 09:40:28;;;;;;;14.97;14.37;;;;;;;-141.22;100.00;65034.22;4992644;28;20840;-45
2023/03/07 09:43:05;;;;;;;15.70;14.50;;;;;;;-141.22;100.00;65034.22;4992648;28;20871;-48
2023/03/07 09:45:45;;;;;;;14.23;13.70;;;;;;;-141.22;100.00;65034.22;4992649;28;20429;-47
2023/03/07 09:48:34;;;;;;;14.87;14.07;;;;;;;-141.22;100.00;65034.22;4992552;28;20442;-45
2023/03/07 09:51:13;;;;;;;17.03;16.13;;;;;;;-141.22;100.00;65034.22;4991754;28;20556;-47
2023/03/07 09:53:45;;;;;;;17.07;15.50;;;;;;;-141.22;100.00;65034.22;4991944;28;20898;-48
2023/03/07 09:56:16;;;;;;;13.37;12.50;;;;;;;-141.22;100.00;65034.22;4992316;28;20442;-47
2023/03/07 09:58:51;;;;;;;12.10;11.43;;;;;;;-141.22;100.00;65034.22;4992351;28;20469;-45
2023/03/07 10:01:22;;;;;;;13.07;12.57;;;;;;;-141.22;100.00;65034.22;4991986;28;20536;-47
2023/03/07 10:03:57;;;;;;;10.90;10.30;;;;;;;-141.22;100.00;65034.22;4991283;28;21254;-52
2023/03/07 10:06:29;;;;;;;10.37;9.77;;;;;;;-141.22;100.00;65034.22;4992105;28;20438;-46
2023/03/07 10:09:00;;;;;;;9.50;9.10;;;;;;;-141.22;100.00;65034.22;4992298;28;20990;-45
2023/03/07 10:11:46;;;;;;;10.97;10.20;;;;;;;-141.22;100.00;65034.22;4991752;28;20458;-45
2023/03/07 10:14:28;;;;;;;9.17;8.67;;;;;;;-141.22;100.00;65034.22;4991419;28;20446;-48
2023/03/07 10:17:04;;;;;;;9.90;9.57;;;;;;;-141.22;100.00;65034.22;4992203;28;20811;-49
2023/03/07 10:19:41;;;;;;;9.83;9.30;;;;;;;-141.22;100.00;65034.22;4991990;28;20492;-50
2023/03/07 10:22:17;;;;;;;12.13;11.33;;;;;;;-141.22;100.00;65034.22;4991159;28;20473;-47
2023/03/07 10:24:57;;;;;;;12.00;11.20;;;;;;;-141.22;100.00;65034.22;4991597;28;20450;-47
2023/03/07 10:27:28;;;;;;;11.43;10.73;;;;;;;-141.22;100.00;65034.22;4991819;28;20434;-47
2023/03/07 10:29:59;;;;;;;13.43;10.47;;;;;;;-141.22;100.00;65034.22;4991469;28;20429;-47
2023/03/07 10:32:34;;;;;;;11.47;10.73;;;;;;;-141.22;100.00;65034.22;4991723;28;20568;-48
2023/03/07 10:35:15;;;;;;;10.10;9.80;;;;;;;-141.22;100.00;65034.22;4991698;28;20433;-44
2023/03/07 10:37:49;;;;;;;11.37;10.70;;;;;;;-141.22;100.00;65034.22;4992282;28;20771;-47
2023/03/07 10:40:29;;;;;;;10.23;9.40;;;;;;;-141.22;100.00;65034.22;4992105;28;20458;-48
2023/03/07 10:42:59;;;;;;;9.83;9.23;;;;;;;-141.22;100.00;65034.22;4995232;28;20450;-47
2023/03/07 10:45:29;;;;;;;9.70;9.30;;;;;;;-141.22;100.00;65034.22;4995970;28;20464;-53
2023/03/07 10:47:58;;;;;;;10.10;9.40;;;;;;;-141.22;100.00;65034.22;4995675;28;20434;-48
2023/03/07 10:50:41;;;;;;;10.50;9.40;;;;;;;-141.22;100.00;65034.22;4995201;28;20536;-48
2023/03/07 10:53:22;;;;;;;9.20;8.43;;;;;;;-141.22;100.00;65034.22;4994930;28;20569;-46
2023/03/07 10:55:51;;;;;;;9.10;8.63;;;;;;;-141.22;100.00;65034.22;4995333;28;20437;-47
2023/03/07 10:58:22;;;;;;;10.07;9.47;;;;;;;-141.22;100.00;65034.22;4995289;28;20940;-45
2023/03/07 11:01:15;;;;;;;9.17;8.77;;;;;;;-141.22;100.00;65034.22;4995230;28;20552;-47
2023/03/07 11:03:46;;;;;;;10.90;9.80;;;;;;;-141.22;100.00;65034.22;4995152;28;20461;-44
2023/03/07 11:06:39;;;;;;;9.30;8.70;;;;;;;-141.22;100.00;65034.22;4995097;28;20927;-47